Time;durP1;ratioP1;P1;durP2;ratioP2;P2;SDS_P1;SDS_P2;PMS_P1;PMS_P2;Temp;Humidity;BMP_temperature;BMP_pressure;BME280_temperature;BME280_humidity;BME280_pressure;Samples;Min_cycle;Max_cycle;Signal;HPM_P1;HPM_P2
2021/01/15 00:02:21;;;;;;;21.93;9.50;;;0.50;99.70;;;;;;5030819;28;20500;-68
2021/01/15 00:04:47;;;;;;;23.93;9.20;;;0.50;99.70;;;;;;5030514;28;20889;-69
2021/01/15 00:07:14;;;;;;;19.80;9.20;;;0.40;99.70;;;;;;5030519;28;20449;-69
2021/01/15 00:09:40;;;;;;;21.27;9.27;;;0.50;99.70;;;;;;5030367;28;20457;-68
2021/01/15 00:12:07;;;;;;;19.37;8.40;;;0.50;99.70;;;;;;5030609;28;20831;-67
2021/01/15 00:14:33;;;;;;;19.53;8.70;;;0.50;99.70;;;;;;5030639;28;20460;-67
2021/01/15 00:16:59;;;;;;;19.97;8.73;;;0.50;99.70;;;;;;5030454;28;20537;-67
2021/01/15 00:19:25;;;;;;;22.00;9.77;;;0.50;99.70;;;;;;5030787;28;20665;-67
2021/01/15 00:21:52;;;;;;;19.70;9.03;;;0.40;99.70;;;;;;5030812;28;20440;-68
2021/01/15 00:24:20;;;;;;;20.20;8.77;;;0.50;99.70;;;;;;5030432;28;20502;-68
2021/01/15 00:26:47;;;;;;;17.70;8.20;;;0.50;99.70;;;;;;5030115;28;20452;-67
2021/01/15 00:29:14;;;;;;;17.40;8.20;;;0.40;99.70;;;;;;5030276;28;20938;-68
2021/01/15 00:31:41;;;;;;;22.53;8.50;;;0.40;99.70;;;;;;5029683;28;20528;-68
2021/01/15 00:34:09;;;;;;;20.40;8.43;;;0.50;99.70;;;;;;5030191;28;20447;-67
2021/01/15 00:36:36;;;;;;;15.37;7.80;;;0.40;99.70;;;;;;5030395;28;20942;-67
2021/01/15 00:39:04;;;;;;;18.00;7.90;;;0.50;99.70;;;;;;5029852;28;20445;-69
2021/01/15 00:41:33;;;;;;;15.83;7.80;;;0.50;99.70;;;;;;5030217;28;20681;-68
2021/01/15 00:44:00;;;;;;;13.50;6.80;;;0.50;99.70;;;;;;5030198;28;20463;-67
2021/01/15 00:46:31;;;;;;;15.83;7.90;;;0.40;99.70;;;;;;5030193;28;20469;-67
2021/01/15 00:48:59;;;;;;;16.27;7.13;;;0.40;99.70;;;;;;5029795;28;20484;-67
2021/01/15 00:51:25;;;;;;;16.10;7.47;;;0.50;99.70;;;;;;5030116;28;20505;-68
2021/01/15 00:53:51;;;;;;;13.30;6.40;;;0.50;99.70;;;;;;5030165;28;20846;-67
2021/01/15 00:56:18;;;;;;;19.00;7.10;;;0.40;99.70;;;;;;5031927;28;20504;-68
2021/01/15 00:58:46;;;;;;;15.30;7.10;;;0.40;99.70;;;;;;5033659;28;20475;-67
2021/01/15 01:01:14;;;;;;;11.60;5.93;;;0.40;99.70;;;;;;5034055;28;20440;-67
2021/01/15 01:03:40;;;;;;;9.13;5.30;;;0.40;99.70;;;;;;5033974;28;20452;-67
2021/01/15 01:06:10;;;;;;;9.47;5.43;;;0.40;99.70;;;;;;5033902;28;20551;-68
2021/01/15 01:08:36;;;;;;;11.57;5.07;;;0.40;99.70;;;;;;5033584;28;20964;-67
2021/01/15 01:11:03;;;;;;;8.07;4.50;;;0.40;99.70;;;;;;5033827;28;20444;-67
2021/01/15 01:13:29;;;;;;;8.20;4.50;;;0.40;99.70;;;;;;5033781;28;20444;-68
2021/01/15 01:15:56;;;;;;;9.70;5.00;;;0.40;99.70;;;;;;5033635;28;20472;-68
2021/01/15 01:18:22;;;;;;;9.80;4.90;;;0.40;99.70;;;;;;5033470;28;20480;-68
2021/01/15 01:20:48;;;;;;;8.03;4.90;;;0.40;99.70;;;;;;5033582;28;20440;-68
2021/01/15 01:23:14;;;;;;;9.87;5.17;;;0.40;99.70;;;;;;5033742;28;20448;-68
2021/01/15 01:25:41;;;;;;;8.90;4.97;;;0.30;99.70;;;;;;5033423;28;20468;-67
2021/01/15 01:28:07;;;;;;;7.57;4.70;;;0.40;99.70;;;;;;5033470;28;20437;-69
2021/01/15 01:30:33;;;;;;;9.10;4.97;;;0.40;99.70;;;;;;5033852;28;20444;-69
2021/01/15 01:33:00;;;;;;;11.13;5.23;;;0.40;99.70;;;;;;5032863;28;20964;-68
2021/01/15 01:35:26;;;;;;;11.60;5.53;;;0.40;99.70;;;;;;5033324;28;20800;-68
2021/01/15 01:37:52;;;;;;;10.43;5.53;;;0.40;99.70;;;;;;5033276;28;20479;-67
2021/01/15 01:40:20;;;;;;;8.37;5.03;;;0.40;99.70;;;;;;5033313;28;20444;-68
2021/01/15 01:42:46;;;;;;;13.63;5.00;;;0.30;99.70;;;;;;5033282;28;20453;-68
2021/01/15 01:45:13;;;;;;;9.10;4.90;;;0.20;99.70;;;;;;5033192;28;20992;-68
2021/01/15 01:47:40;;;;;;;8.90;4.93;;;0.20;99.70;;;;;;5032969;28;20520;-69
2021/01/15 01:50:08;;;;;;;8.33;4.67;;;0.20;99.70;;;;;;5033240;28;20937;-68
2021/01/15 01:52:35;;;;;;;8.30;4.50;;;0.30;99.70;;;;;;5033163;28;21080;-68
2021/01/15 01:55:02;;;;;;;8.33;5.10;;;0.20;99.70;;;;;;5032822;28;20546;-67
2021/01/15 01:57:28;;;;;;;7.07;4.77;;;0.20;99.70;;;;;;5032609;28;20484;-68
2021/01/15 01:59:55;;;;;;;8.60;4.60;;;0.20;99.70;;;;;;5033013;28;20441;-67
2021/01/15 02:02:21;;;;;;;7.37;4.20;;;0.30;99.70;;;;;;5032860;28;20448;-68
2021/01/15 02:04:47;;;;;;;6.20;3.90;;;0.30;99.70;;;;;;5032937;28;20830;-68
2021/01/15 02:07:15;;;;;;;7.63;3.70;;;0.30;99.70;;;;;;5032152;28;20445;-67
2021/01/15 02:09:46;;;;;;;6.90;3.80;;;0.20;99.70;;;;;;5032722;28;20457;-67
2021/01/15 02:12:20;;;;;;;6.60;3.80;;;0.20;99.70;;;;;;5032719;28;20449;-68
2021/01/15 02:15:00;;;;;;;6.23;3.50;;;0.20;99.70;;;;;;5032676;28;20480;-69
2021/01/15 02:17:32;;;;;;;5.27;3.60;;;0.10;99.70;;;;;;5032150;28;20508;-67
2021/01/15 02:20:23;;;;;;;6.70;4.23;;;0.10;99.70;;;;;;5032717;28;20851;-67
2021/01/15 02:23:00;;;;;;;6.00;3.77;;;0.10;99.70;;;;;;5020222;28;20472;-67
2021/01/15 02:25:59;;;;;;;5.33;3.30;;;0.10;99.70;;;;;;5032327;28;20460;-68
2021/01/15 02:29:09;;;;;;;5.13;3.50;;;0.20;99.70;;;;;;5032140;28;20454;-68
2021/01/15 02:32:03;;;;;;;5.23;3.30;;;0.10;99.70;;;;;;5031701;28;20448;-69
2021/01/15 02:34:40;;;;;;;7.20;3.80;;;0.10;99.70;;;;;;5015626;28;20816;-67
2021/01/15 02:37:12;;;;;;;7.10;3.80;;;0.10;99.70;;;;;;5031836;28;20480;-69
2021/01/15 02:39:51;;;;;;;4.20;3.13;;;0.20;99.70;;;;;;5032445;28;20444;-68
2021/01/15 02:42:20;;;;;;;9.30;3.73;;;0.10;99.70;;;;;;5032367;28;20873;-68
2021/01/15 02:44:49;;;;;;;5.97;3.50;;;0.10;99.70;;;;;;5032450;28;20464;-68
2021/01/15 02:47:22;;;;;;;6.87;3.23;;;0.00;99.70;;;;;;5032612;28;20448;-69
2021/01/15 02:49:50;;;;;;;6.60;3.40;;;0.00;99.70;;;;;;5032369;28;20448;-68
2021/01/15 02:52:17;;;;;;;5.00;3.20;;;0.00;99.70;;;;;;5031991;28;20449;-69
2021/01/15 02:54:44;;;;;;;4.93;3.67;;;0.00;99.70;;;;;;5031837;28;20477;-68
2021/01/15 02:57:10;;;;;;;5.33;3.17;;;0.00;99.70;;;;;;5031426;28;20484;-67
2021/01/15 02:59:36;;;;;;;6.47;3.37;;;-0.10;99.70;;;;;;5031955;28;20456;-68
2021/01/15 03:02:12;;;;;;;4.63;3.07;;;0.00;99.70;;;;;;5031695;28;21007;-68
2021/01/15 03:04:48;;;;;;;6.50;3.33;;;0.00;99.70;;;;;;5023975;28;20973;-68
2021/01/15 03:07:16;;;;;;;5.10;3.37;;;-0.10;99.70;;;;;;5031252;28;20494;-69
2021/01/15 03:09:46;;;;;;;5.27;3.20;;;-0.10;99.70;;;;;;5031573;28;20460;-67
2021/01/15 03:12:14;;;;;;;4.93;3.03;;;-0.20;99.70;;;;;;5031556;28;20494;-68
2021/01/15 03:14:42;;;;;;;6.63;3.40;;;-0.10;99.70;;;;;;5031471;28;20502;-68
2021/01/15 03:17:09;;;;;;;5.60;3.57;;;-0.20;99.70;;;;;;5031019;28;20900;-67
2021/01/15 03:19:37;;;;;;;5.20;3.50;;;-0.20;99.70;;;;;;5030717;28;20448;-68
2021/01/15 03:22:09;;;;;;;6.37;3.47;;;-0.30;99.70;;;;;;5031336;28;20449;-69
2021/01/15 03:24:36;;;;;;;7.80;3.30;;;-0.30;99.70;;;;;;5031595;28;20507;-68
2021/01/15 03:27:04;;;;;;;5.67;3.27;;;-0.30;99.70;;;;;;5030903;28;20480;-69
2021/01/15 03:29:30;;;;;;;4.87;2.83;;;-0.30;99.70;;;;;;5031199;28;20510;-68
2021/01/15 03:31:56;;;;;;;4.07;2.80;;;-0.30;99.70;;;;;;5030431;28;20448;-69
2021/01/15 03:34:23;;;;;;;6.60;3.40;;;-0.30;99.70;;;;;;5031099;28;20456;-68
2021/01/15 03:36:49;;;;;;;8.63;3.90;;;-0.30;99.70;;;;;;5030773;28;20823;-68
2021/01/15 03:39:15;;;;;;;6.20;3.17;;;-0.40;99.70;;;;;;5031052;28;20488;-67
2021/01/15 03:41:42;;;;;;;5.40;3.27;;;-0.40;99.70;;;;;;5031228;28;20444;-68
2021/01/15 03:44:08;;;;;;;5.00;3.03;;;-0.40;99.70;;;;;;5031254;28;20440;-68
2021/01/15 03:46:34;;;;;;;4.90;3.30;;;-0.50;99.70;;;;;;5031006;28;20818;-68
2021/01/15 03:49:00;;;;;;;6.90;3.23;;;-0.50;99.70;;;;;;5030597;28;20471;-68
2021/01/15 03:51:26;;;;;;;5.90;3.40;;;-0.60;99.70;;;;;;5030963;28;20471;-68
2021/01/15 03:53:53;;;;;;;4.97;3.20;;;-0.70;99.70;;;;;;5030730;28;20456;-68
2021/01/15 03:56:19;;;;;;;3.33;2.53;;;-0.50;99.70;;;;;;5030810;28;20789;-68
2021/01/15 03:58:46;;;;;;;8.40;3.30;;;-0.60;99.70;;;;;;5030131;28;20492;-67
2021/01/15 04:01:12;;;;;;;5.50;2.97;;;-0.70;99.70;;;;;;5030771;28;20444;-68
2021/01/15 04:03:38;;;;;;;4.70;2.93;;;-0.60;99.70;;;;;;5030590;28;20449;-69
2021/01/15 04:06:05;;;;;;;8.10;3.87;;;-0.60;99.70;;;;;;5030490;28;20499;-67
2021/01/15 04:08:31;;;;;;;4.40;2.80;;;-0.60;99.70;;;;;;5030280;28;20862;-67
2021/01/15 04:10:57;;;;;;;5.63;3.40;;;-0.60;99.70;;;;;;5030669;28;20445;-67
2021/01/15 04:13:23;;;;;;;7.47;3.70;;;-0.70;99.70;;;;;;5030378;28;20444;-69
2021/01/15 04:15:50;;;;;;;5.17;3.20;;;-0.60;99.70;;;;;;5030773;28;20468;-69
2021/01/15 04:18:17;;;;;;;6.43;3.40;;;-0.60;99.70;;;;;;5029919;28;21016;-68
2021/01/15 04:20:43;;;;;;;5.30;3.40;;;-0.80;99.70;;;;;;5030499;28;20540;-68
2021/01/15 04:23:09;;;;;;;7.73;4.13;;;-0.80;99.70;;;;;;5030249;28;20971;-67
2021/01/15 04:25:35;;;;;;;6.33;3.23;;;-0.80;99.70;;;;;;5030325;28;21063;-67
2021/01/15 04:28:02;;;;;;;5.23;3.10;;;-0.80;99.70;;;;;;5029922;28;20452;-67
2021/01/15 04:30:29;;;;;;;11.33;3.70;;;-0.80;99.70;;;;;;5030131;28;20477;-69
2021/01/15 04:32:56;;;;;;;6.10;3.43;;;-0.80;99.70;;;;;;5029537;28;20444;-68
2021/01/15 04:35:22;;;;;;;7.93;3.90;;;-0.80;99.70;;;;;;5030076;28;21001;-68
2021/01/15 04:37:48;;;;;;;10.13;4.10;;;-0.80;99.70;;;;;;5030986;28;20480;-68
2021/01/15 04:40:15;;;;;;;7.73;3.53;;;-0.80;99.70;;;;;;5030141;28;20804;-69
2021/01/15 04:42:43;;;;;;;7.97;4.20;;;-0.90;99.70;;;;;;5030172;28;20452;-68
2021/01/15 04:45:11;;;;;;;4.70;3.33;;;-0.90;99.70;;;;;;5030064;28;20866;-69
2021/01/15 04:47:41;;;;;;;8.83;4.23;;;-0.90;99.70;;;;;;5021944;28;20448;-68
2021/01/15 04:50:11;;;;;;;7.13;4.03;;;-1.00;99.70;;;;;;5030474;28;20451;-68
2021/01/15 04:52:45;;;;;;;8.73;4.13;;;-1.10;99.70;;;;;;5022162;28;20440;-68
2021/01/15 04:55:17;;;;;;;6.07;3.97;;;-1.10;99.70;;;;;;5029971;28;20476;-67
2021/01/15 04:57:47;;;;;;;8.50;4.27;;;-1.00;99.70;;;;;;5029529;28;20487;-68
2021/01/15 05:00:18;;;;;;;7.53;3.93;;;-0.90;99.70;;;;;;5030287;28;20483;-68
2021/01/15 05:02:45;;;;;;;6.90;4.37;;;-0.90;99.70;;;;;;5030170;28;20453;-68
2021/01/15 05:05:19;;;;;;;6.17;4.20;;;-0.80;99.70;;;;;;5029916;28;20544;-68
2021/01/15 05:08:08;;;;;;;6.97;4.07;;;-0.90;99.70;;;;;;5029702;28;20478;-68
2021/01/15 05:10:37;;;;;;;8.03;4.50;;;-1.20;99.70;;;;;;5030103;28;20441;-68
2021/01/15 05:13:06;;;;;;;7.43;4.70;;;-1.20;99.70;;;;;;5030106;28;20973;-68
2021/01/15 05:15:33;;;;;;;7.80;4.50;;;-1.30;99.70;;;;;;5030083;28;20522;-67
2021/01/15 05:18:02;;;;;;;6.77;4.37;;;-1.20;99.70;;;;;;5029842;28;20480;-67
2021/01/15 05:20:30;;;;;;;10.50;4.97;;;-1.10;99.70;;;;;;5030024;28;20451;-68
2021/01/15 05:22:57;;;;;;;8.30;4.93;;;-1.20;99.70;;;;;;5029967;28;20456;-68
2021/01/15 05:25:24;;;;;;;7.40;4.63;;;-1.20;99.70;;;;;;5029857;28;20464;-68
2021/01/15 05:27:50;;;;;;;8.07;4.40;;;-1.10;99.70;;;;;;5029790;28;20503;-68
2021/01/15 05:30:20;;;;;;;8.33;4.60;;;-1.10;99.70;;;;;;5029994;28;20448;-68
2021/01/15 05:32:47;;;;;;;7.87;4.47;;;-1.10;99.70;;;;;;5029202;28;20448;-68
2021/01/15 05:35:14;;;;;;;8.10;4.77;;;-1.20;99.70;;;;;;5030004;28;20456;-68
2021/01/15 05:37:42;;;;;;;7.43;4.40;;;-1.20;99.70;;;;;;5029637;28;20487;-68
2021/01/15 05:40:09;;;;;;;8.53;4.90;;;-1.30;99.70;;;;;;5029748;28;20448;-68
2021/01/15 05:42:50;;;;;;;10.60;5.00;;;-1.30;99.70;;;;;;5032279;28;20527;-67
2021/01/15 05:45:17;;;;;;;9.10;5.50;;;-1.30;99.70;;;;;;5033336;28;20476;-68
2021/01/15 05:47:44;;;;;;;10.23;4.97;;;-1.50;99.70;;;;;;5032904;28;20961;-68
2021/01/15 05:50:11;;;;;;;7.87;4.50;;;-1.40;99.70;;;;;;5033112;28;20455;-68
2021/01/15 05:52:52;;;;;;;9.50;5.20;;;-1.30;99.70;;;;;;5033312;28;20448;-67
2021/01/15 05:55:20;;;;;;;10.73;5.60;;;-1.20;99.70;;;;;;5033185;28;20480;-68
2021/01/15 05:57:49;;;;;;;9.00;4.70;;;-1.10;99.70;;;;;;5032706;28;20947;-68
2021/01/15 06:00:34;;;;;;;11.00;4.90;;;-1.30;99.70;;;;;;5033129;28;20902;-68
2021/01/15 06:03:04;;;;;;;9.67;4.97;;;-1.50;99.70;;;;;;5033203;28;20535;-68
2021/01/15 06:05:32;;;;;;;10.40;5.03;;;-1.40;99.70;;;;;;5032729;28;20522;-69
2021/01/15 06:07:59;;;;;;;9.07;5.57;;;-1.40;99.70;;;;;;5032652;28;20441;-68
2021/01/15 06:10:28;;;;;;;8.37;5.03;;;-1.40;99.70;;;;;;5032811;28;20448;-68
2021/01/15 06:12:54;;;;;;;9.70;4.93;;;-1.40;99.70;;;;;;5032995;28;20452;-68
2021/01/15 06:15:21;;;;;;;11.07;5.87;;;-1.50;99.70;;;;;;5032688;28;21016;-68
2021/01/15 06:17:52;;;;;;;10.03;4.70;;;-1.50;99.70;;;;;;5032413;28;20484;-69
2021/01/15 06:20:19;;;;;;;10.50;5.57;;;-1.60;99.70;;;;;;5032831;28;20441;-67
2021/01/15 06:22:49;;;;;;;10.00;4.93;;;-1.50;99.70;;;;;;5032590;28;20444;-67
2021/01/15 06:25:24;;;;;;;12.80;5.57;;;-1.40;99.70;;;;;;5032897;28;21172;-68
2021/01/15 06:27:55;;;;;;;12.03;4.90;;;-1.50;99.70;;;;;;5032377;28;20871;-68
2021/01/15 06:30:23;;;;;;;8.93;4.70;;;-1.50;99.70;;;;;;5032538;28;20944;-68
2021/01/15 06:32:50;;;;;;;14.43;5.50;;;-1.60;99.70;;;;;;5031812;28;20502;-68
2021/01/15 06:35:25;;;;;;;10.40;5.43;;;-1.60;99.70;;;;;;5032256;28;20468;-69
2021/01/15 06:37:58;;;;;;;8.03;4.70;;;-1.50;99.70;;;;;;5031902;28;20927;-67
2021/01/15 06:40:31;;;;;;;10.67;5.57;;;-1.60;99.70;;;;;;5032391;28;20476;-68
2021/01/15 06:42:58;;;;;;;9.80;4.70;;;-1.70;99.70;;;;;;5032476;28;20630;-68
2021/01/15 06:45:25;;;;;;;10.30;5.30;;;-1.70;99.70;;;;;;5032054;28;20496;-68
2021/01/15 06:47:54;;;;;;;10.37;5.23;;;-1.70;99.70;;;;;;5031012;28;20448;-68
2021/01/15 06:50:20;;;;;;;10.10;5.47;;;-1.70;99.70;;;;;;5024567;28;20860;-68
2021/01/15 06:52:48;;;;;;;10.30;5.50;;;-1.70;99.70;;;;;;5009924;28;20442;-67
2021/01/15 06:55:17;;;;;;;11.50;5.73;;;-1.70;99.70;;;;;;5010829;28;20904;-68
2021/01/15 06:57:48;;;;;;;15.33;7.23;;;-1.70;99.70;;;;;;5010769;28;20488;-68
2021/01/15 07:00:21;;;;;;;13.37;6.53;;;-1.70;99.70;;;;;;5011078;28;20493;-67
2021/01/15 07:03:25;;;;;;;12.37;6.20;;;-1.70;99.70;;;;;;5017826;28;20445;-67
2021/01/15 07:05:53;;;;;;;11.60;6.10;;;-1.70;99.70;;;;;;5021356;28;20903;-68
2021/01/15 07:08:20;;;;;;;11.53;6.27;;;-1.70;99.70;;;;;;5030689;28;20443;-67
2021/01/15 07:10:46;;;;;;;14.97;6.33;;;-1.70;99.70;;;;;;5030552;28;20457;-68
2021/01/15 07:13:26;;;;;;;12.80;6.17;;;-1.80;99.70;;;;;;5030385;28;20448;-67
2021/01/15 07:15:54;;;;;;;17.43;6.17;;;-1.70;99.70;;;;;;5019790;28;20473;-68
2021/01/15 07:18:31;;;;;;;13.17;6.23;;;-1.70;99.70;;;;;;5027462;28;20520;-68
2021/01/15 07:20:57;;;;;;;12.30;6.07;;;-1.70;99.70;;;;;;5010304;28;20932;-68
2021/01/15 07:23:43;;;;;;;12.50;6.00;;;-1.80;99.70;;;;;;5016700;28;20444;-67
2021/01/15 07:26:10;;;;;;;12.80;6.57;;;-1.90;99.70;;;;;;5030062;28;20854;-68
2021/01/15 07:28:37;;;;;;;17.57;7.10;;;-1.90;99.70;;;;;;5029690;28;20452;-68
2021/01/15 07:31:05;;;;;;;17.10;6.93;;;-1.80;99.70;;;;;;5029290;28;20440;-67
2021/01/15 07:33:34;;;;;;;12.30;6.43;;;-1.80;99.70;;;;;;5029938;28;20448;-69
2021/01/15 07:36:00;;;;;;;15.27;6.37;;;-1.70;99.70;;;;;;5030196;28;21057;-69
2021/01/15 07:38:26;;;;;;;12.70;6.70;;;-1.70;99.70;;;;;;5030057;28;20484;-68
2021/01/15 07:40:53;;;;;;;16.00;7.70;;;-1.80;99.70;;;;;;5029990;28;20531;-67
2021/01/15 07:43:29;;;;;;;16.53;7.17;;;-1.70;99.70;;;;;;5029909;28;20547;-68
2021/01/15 07:45:59;;;;;;;12.33;6.90;;;-1.80;99.70;;;;;;5029396;28;20473;-68
2021/01/15 07:48:27;;;;;;;17.23;6.90;;;-1.80;99.70;;;;;;5028110;28;20437;-68
2021/01/15 07:50:54;;;;;;;18.10;7.47;;;-1.80;99.70;;;;;;5016281;28;20436;-68
2021/01/15 07:53:39;;;;;;;14.23;7.53;;;-1.70;99.70;;;;;;5029854;28;20449;-68
2021/01/15 07:56:05;;;;;;;14.90;7.93;;;-1.70;99.70;;;;;;5029537;28;20483;-68
2021/01/15 07:58:45;;;;;;;14.97;7.83;;;-1.60;99.70;;;;;;5029394;28;20547;-68
2021/01/15 08:01:13;;;;;;;17.83;7.87;;;-1.70;99.70;;;;;;5028961;28;20824;-68
2021/01/15 08:03:41;;;;;;;14.63;7.50;;;-1.70;99.70;;;;;;5028826;28;20449;-67
2021/01/15 08:06:09;;;;;;;18.40;7.63;;;-1.70;99.70;;;;;;5029324;28;20492;-68
2021/01/15 08:08:41;;;;;;;21.57;8.30;;;-1.70;99.70;;;;;;5021254;28;20448;-68
2021/01/15 08:11:11;;;;;;;14.57;7.10;;;-1.60;99.70;;;;;;5030164;28;20449;-68
2021/01/15 08:13:37;;;;;;;15.60;7.00;;;-1.60;99.70;;;;;;5019495;28;20440;-70
2021/01/15 08:16:06;;;;;;;14.70;7.30;;;-1.50;99.70;;;;;;5019454;28;20884;-68
2021/01/15 08:18:33;;;;;;;14.80;7.67;;;-1.50;99.70;;;;;;5029244;28;20535;-68
2021/01/15 08:21:01;;;;;;;14.03;6.97;;;-1.50;99.70;;;;;;5022074;28;20496;-68
2021/01/15 08:23:28;;;;;;;18.03;7.33;;;-1.50;99.70;;;;;;5013087;28;20433;-69
2021/01/15 08:26:21;;;;;;;13.70;7.07;;;-1.50;99.70;;;;;;5009805;28;20465;-69
2021/01/15 08:28:48;;;;;;;14.20;7.30;;;-1.40;99.70;;;;;;5009575;28;20473;-68
2021/01/15 08:31:20;;;;;;;16.47;7.00;;;-1.40;99.70;;;;;;5008907;28;20477;-67
2021/01/15 08:33:46;;;;;;;15.70;7.57;;;-1.30;99.70;;;;;;5009534;28;20452;-68
2021/01/15 08:36:16;;;;;;;13.23;7.13;;;-1.30;99.70;;;;;;5009286;28;20473;-70
2021/01/15 08:38:42;;;;;;;15.77;7.97;;;-1.30;99.70;;;;;;5025901;28;20488;-67
2021/01/15 08:41:15;;;;;;;18.67;8.67;;;-1.30;99.70;;;;;;5029130;28;20452;-67
2021/01/15 08:43:42;;;;;;;17.37;7.70;;;-1.40;99.70;;;;;;5029414;28;20936;-69
2021/01/15 08:46:14;;;;;;;15.77;7.70;;;-1.30;99.70;;;;;;5029007;28;20460;-69
2021/01/15 08:48:41;;;;;;;15.30;7.40;;;-1.30;99.70;;;;;;5008785;28;20478;-68
2021/01/15 08:51:09;;;;;;;19.47;8.10;;;-1.40;99.70;;;;;;5008241;28;20496;-70
2021/01/15 08:54:03;;;;;;;14.00;7.30;;;-1.40;99.70;;;;;;5007749;28;20445;-67
2021/01/15 08:56:35;;;;;;;19.23;8.67;;;-1.30;99.70;;;;;;5009085;28;20603;-69
2021/01/15 08:59:01;;;;;;;20.20;9.20;;;-1.30;99.70;;;;;;5009064;28;20585;-68
2021/01/15 09:01:29;;;;;;;16.97;8.20;;;-1.30;99.70;;;;;;5009776;28;20664;-67
2021/01/15 09:04:02;;;;;;;15.80;7.80;;;-1.30;99.70;;;;;;5009784;28;20449;-64
2021/01/15 09:06:29;;;;;;;15.50;7.43;;;-1.30;99.70;;;;;;5017096;28;20850;-68
2021/01/15 09:08:58;;;;;;;16.87;8.47;;;-1.30;99.70;;;;;;5028159;28;20970;-68
2021/01/15 09:11:29;;;;;;;17.07;8.40;;;-1.30;99.70;;;;;;5028986;28;20456;-68
2021/01/15 09:13:56;;;;;;;18.20;7.57;;;-1.20;99.70;;;;;;5029002;28;20433;-68
2021/01/15 09:16:24;;;;;;;14.07;6.80;;;-1.10;99.70;;;;;;5020591;28;20469;-69
2021/01/15 09:18:52;;;;;;;16.30;8.20;;;-1.10;99.70;;;;;;5031639;28;20527;-68
2021/01/15 09:21:18;;;;;;;17.23;7.67;;;-1.10;99.70;;;;;;5032448;28;20445;-68
2021/01/15 09:23:45;;;;;;;17.40;7.60;;;-1.10;99.70;;;;;;5020207;28;20445;-69
2021/01/15 09:26:12;;;;;;;17.20;8.13;;;-1.10;99.70;;;;;;5011262;28;20467;-69
2021/01/15 09:28:38;;;;;;;16.27;7.70;;;-1.10;99.70;;;;;;5011916;28;20456;-69
2021/01/15 09:31:05;;;;;;;19.80;8.40;;;-1.00;99.70;;;;;;5011774;28;20812;-68
2021/01/15 09:33:31;;;;;;;17.60;8.17;;;-1.00;99.70;;;;;;5013066;28;20446;-69
2021/01/15 09:35:57;;;;;;;17.50;7.80;;;-1.00;99.70;;;;;;5012940;28;20885;-68
2021/01/15 09:38:24;;;;;;;18.33;8.07;;;-1.10;99.70;;;;;;5012418;28;20513;-68
2021/01/15 09:40:50;;;;;;;19.23;8.93;;;-1.10;99.70;;;;;;5012876;28;20873;-68
2021/01/15 09:43:19;;;;;;;17.03;8.00;;;-1.00;99.70;;;;;;5012940;28;20452;-70
2021/01/15 09:45:45;;;;;;;19.17;8.03;;;-0.90;99.70;;;;;;5013255;28;20473;-69
2021/01/15 09:48:12;;;;;;;20.60;7.83;;;-0.90;99.70;;;;;;5012397;28;20448;-68
2021/01/15 09:50:39;;;;;;;18.83;8.20;;;-0.70;99.70;;;;;;5023594;28;20480;-67
2021/01/15 09:53:05;;;;;;;16.93;8.40;;;-0.70;99.70;;;;;;5032464;28;20479;-68
2021/01/15 09:55:31;;;;;;;16.70;7.77;;;-0.50;99.70;;;;;;5032612;28;20476;-68
2021/01/15 09:57:58;;;;;;;17.40;8.63;;;-0.50;99.70;;;;;;5031936;28;20483;-68
2021/01/15 10:00:25;;;;;;;16.30;8.07;;;-0.60;99.70;;;;;;5031944;28;21166;-68
2021/01/15 10:02:52;;;;;;;17.87;8.10;;;-0.60;99.70;;;;;;5030497;28;20490;-70
2021/01/15 10:05:19;;;;;;;17.77;8.07;;;-0.70;99.70;;;;;;5030839;28;20461;-68
2021/01/15 10:07:45;;;;;;;21.13;9.30;;;-0.50;99.70;;;;;;5029674;28;20457;-68
2021/01/15 10:10:12;;;;;;;17.10;8.77;;;-0.40;99.70;;;;;;5030695;28;20653;-68
2021/01/15 10:12:39;;;;;;;18.23;8.80;;;-0.30;99.70;;;;;;5030896;28;20441;-68
2021/01/15 10:15:07;;;;;;;21.80;7.70;;;0.00;99.70;;;;;;5030967;28;20472;-68
2021/01/15 10:17:43;;;;;;;18.40;8.80;;;-0.10;99.70;;;;;;5030575;28;21036;-68
2021/01/15 10:20:10;;;;;;;16.73;8.50;;;-0.20;99.70;;;;;;5022403;28;20464;-67
2021/01/15 10:22:36;;;;;;;38.00;10.90;;;-0.30;99.70;;;;;;5022011;28;20448;-68
2021/01/15 10:25:03;;;;;;;16.07;7.80;;;-0.10;99.70;;;;;;5021548;28;20530;-68
2021/01/15 10:27:29;;;;;;;19.20;9.90;;;-0.10;99.70;;;;;;5028619;28;20464;-68
2021/01/15 10:29:55;;;;;;;22.20;8.57;;;0.00;99.70;;;;;;5012112;28;20449;-68
2021/01/15 10:32:21;;;;;;;21.03;8.50;;;0.00;99.70;;;;;;5010742;28;20840;-69
2021/01/15 10:34:48;;;;;;;17.40;7.67;;;-0.10;99.70;;;;;;5011191;28;20461;-67
2021/01/15 10:37:15;;;;;;;17.30;8.00;;;0.00;99.70;;;;;;5011038;28;20847;-68
2021/01/15 10:39:41;;;;;;;16.70;7.70;;;0.00;99.70;;;;;;5011408;28;20482;-68
2021/01/15 10:42:07;;;;;;;13.20;7.03;;;0.10;99.70;;;;;;5008345;28;20449;-68
2021/01/15 10:44:33;;;;;;;14.77;7.00;;;0.00;99.70;;;;;;5030074;28;20461;-68
2021/01/15 10:47:02;;;;;;;17.13;6.93;;;0.00;99.70;;;;;;5023742;28;20452;-69
2021/01/15 10:49:28;;;;;;;14.67;7.40;;;0.00;99.70;;;;;;5029002;28;20448;-69
2021/01/15 10:51:55;;;;;;;17.67;8.70;;;0.10;99.70;;;;;;5030393;28;20447;-68
2021/01/15 10:54:22;;;;;;;21.20;8.80;;;0.10;99.70;;;;;;5030448;28;20464;-67
2021/01/15 10:56:51;;;;;;;21.17;9.33;;;0.10;99.70;;;;;;5030359;28;20460;-68
2021/01/15 10:59:18;;;;;;;24.33;9.47;;;0.10;99.70;;;;;;5030006;28;20484;-68
2021/01/15 11:01:45;;;;;;;18.93;8.37;;;0.30;99.70;;;;;;5016844;28;20469;-68
2021/01/15 11:04:14;;;;;;;17.70;7.50;;;0.30;99.70;;;;;;5009887;28;20457;-68
2021/01/15 11:06:43;;;;;;;17.60;8.80;;;0.30;99.70;;;;;;5010189;28;20646;-68
2021/01/15 11:09:12;;;;;;;19.60;9.13;;;0.30;99.70;;;;;;5010232;28;20446;-70
2021/01/15 11:11:45;;;;;;;23.00;10.07;;;0.30;99.70;;;;;;5019559;28;20487;-68
2021/01/15 11:14:11;;;;;;;18.70;9.30;;;0.40;99.70;;;;;;5030693;28;20490;-67
2021/01/15 11:16:37;;;;;;;20.00;8.97;;;0.40;99.70;;;;;;5030581;28;20452;-70
2021/01/15 11:19:03;;;;;;;19.63;9.90;;;0.70;99.70;;;;;;5030408;28;20492;-69
2021/01/15 11:21:30;;;;;;;24.10;9.97;;;0.70;99.70;;;;;;5030385;28;20448;-68
2021/01/15 11:23:56;;;;;;;19.10;8.67;;;0.70;99.70;;;;;;5030586;28;20448;-70
2021/01/15 11:26:24;;;;;;;24.33;10.57;;;0.80;99.70;;;;;;5025250;28;20472;-68
2021/01/15 11:28:52;;;;;;;24.77;11.03;;;0.80;99.70;;;;;;5014989;28;20449;-69
2021/01/15 11:31:18;;;;;;;24.37;10.47;;;1.00;99.70;;;;;;5009789;28;20442;-68
2021/01/15 11:33:44;;;;;;;21.83;10.40;;;0.70;99.70;;;;;;5010340;28;20948;-67
2021/01/15 11:36:11;;;;;;;21.67;9.87;;;0.80;99.70;;;;;;5009939;28;20488;-69
2021/01/15 11:38:37;;;;;;;20.17;10.20;;;0.90;99.70;;;;;;5009491;28;20619;-69
2021/01/15 11:41:04;;;;;;;23.07;10.63;;;0.80;99.70;;;;;;5019281;28;20471;-70
2021/01/15 11:43:33;;;;;;;28.97;11.10;;;0.70;99.70;;;;;;5025472;28;20988;-69
2021/01/15 11:46:00;;;;;;;21.10;10.17;;;0.60;99.70;;;;;;5012889;28;20516;-69
2021/01/15 11:48:28;;;;;;;25.37;11.57;;;0.90;99.70;;;;;;5009080;28;20461;-69
2021/01/15 11:50:54;;;;;;;24.17;10.43;;;0.90;99.70;;;;;;5026291;28;20452;-68
2021/01/15 11:53:21;;;;;;;20.50;9.90;;;0.90;99.70;;;;;;5027237;28;20498;-69
2021/01/15 11:55:48;;;;;;;21.97;10.73;;;0.90;99.70;;;;;;5019786;28;20904;-70
2021/01/15 11:58:14;;;;;;;22.10;10.50;;;0.90;99.70;;;;;;5010044;28;21049;-68
2021/01/15 12:00:42;;;;;;;23.40;10.30;;;0.90;99.70;;;;;;5012974;28;20459;-68
2021/01/15 12:03:08;;;;;;;20.43;10.23;;;0.90;99.70;;;;;;5027121;28;20513;-66
2021/01/15 12:05:41;;;;;;;25.80;10.40;;;0.90;99.70;;;;;;5028622;28;20476;-65
2021/01/15 12:08:08;;;;;;;25.17;11.00;;;0.90;99.70;;;;;;5018914;28;20571;-64
2021/01/15 12:10:36;;;;;;;23.03;10.43;;;1.00;99.70;;;;;;5010151;28;20596;-67
2021/01/15 12:13:03;;;;;;;27.17;12.30;;;1.10;99.70;;;;;;5018540;28;20484;-67
2021/01/15 12:15:29;;;;;;;21.43;9.90;;;1.00;99.70;;;;;;5029568;28;20475;-68
2021/01/15 12:17:56;;;;;;;22.23;8.57;;;1.20;99.70;;;;;;5029518;28;20961;-66
2021/01/15 12:20:23;;;;;;;18.17;7.80;;;1.10;99.70;;;;;;5029659;28;20453;-67
2021/01/15 12:22:49;;;;;;;18.43;8.23;;;1.30;99.70;;;;;;5014340;28;20445;-68
2021/01/15 12:25:16;;;;;;;17.23;7.53;;;1.40;99.70;;;;;;5025331;28;20485;-69
2021/01/15 12:27:42;;;;;;;15.43;7.57;;;1.30;99.70;;;;;;5016373;28;20719;-69
2021/01/15 12:30:09;;;;;;;21.50;10.60;;;1.30;99.70;;;;;;5025244;28;20448;-69
2021/01/15 12:32:36;;;;;;;25.30;12.60;;;1.30;99.70;;;;;;5020578;28;20949;-68
2021/01/15 12:35:04;;;;;;;29.07;11.77;;;1.20;99.70;;;;;;5023947;28;20503;-68
2021/01/15 12:37:30;;;;;;;18.90;9.40;;;1.00;99.70;;;;;;5005339;28;20475;-70
2021/01/15 12:39:57;;;;;;;17.87;8.07;;;1.00;99.70;;;;;;5016172;28;20500;-67
2021/01/15 12:42:23;;;;;;;23.53;10.50;;;1.30;99.70;;;;;;5021195;28;20456;-68
2021/01/15 12:44:49;;;;;;;23.43;11.37;;;1.20;99.70;;;;;;5027281;28;20511;-68
2021/01/15 12:47:16;;;;;;;29.87;14.27;;;1.10;99.70;;;;;;5010641;28;20507;-67
2021/01/15 12:49:42;;;;;;;29.40;12.03;;;1.20;99.70;;;;;;5025324;28;20440;-67
2021/01/15 12:52:09;;;;;;;24.57;10.87;;;1.20;99.70;;;;;;5025183;28;20453;-67